sensor_id;sensor_type;location;lat;lon;timestamp;P1;durP1;ratioP1;P2;durP2;ratioP2
14139;SDS011;7150;53.514;9.988;2022-10-31T00:01:18;36.10;;;26.90;;
14139;SDS011;7150;53.514;9.988;2022-10-31T00:03:46;38.17;;;26.97;;
14139;SDS011;7150;53.514;9.988;2022-10-31T00:06:12;37.80;;;26.83;;
14139;SDS011;7150;53.514;9.988;2022-10-31T00:08:38;34.20;;;24.60;;
14139;SDS011;7150;53.514;9.988;2022-10-31T00:11:03;34.13;;;22.37;;
14139;SDS011;7150;53.514;9.988;2022-10-31T00:13:33;36.30;;;25.50;;
14139;SDS011;7150;53.514;9.988;2022-10-31T00:15:58;34.93;;;23.33;;
14139;SDS011;7150;53.514;9.988;2022-10-31T00:18:24;29.60;;;20.03;;
14139;SDS011;7150;53.514;9.988;2022-10-31T00:20:57;31.17;;;20.97;;
14139;SDS011;7150;53.514;9.988;2022-10-31T00:23:24;28.20;;;20.57;;
14139;SDS011;7150;53.514;9.988;2022-10-31T00:25:49;27.40;;;19.57;;
14139;SDS011;7150;53.514;9.988;2022-10-31T00:28:15;28.40;;;19.00;;
14139;SDS011;7150;53.514;9.988;2022-10-31T00:30:40;28.10;;;17.60;;
14139;SDS011;7150;53.514;9.988;2022-10-31T00:33:06;26.13;;;17.47;;
14139;SDS011;7150;53.514;9.988;2022-10-31T00:35:31;24.50;;;17.47;;
14139;SDS011;7150;53.514;9.988;2022-10-31T00:37:57;24.13;;;14.10;;
14139;SDS011;7150;53.514;9.988;2022-10-31T00:40:22;26.20;;;15.27;;
14139;SDS011;7150;53.514;9.988;2022-10-31T00:42:48;26.23;;;15.10;;
14139;SDS011;7150;53.514;9.988;2022-10-31T00:45:13;24.30;;;14.47;;
14139;SDS011;7150;53.514;9.988;2022-10-31T00:47:39;20.67;;;14.20;;
14139;SDS011;7150;53.514;9.988;2022-10-31T00:50:05;20.03;;;14.20;;
14139;SDS011;7150;53.514;9.988;2022-10-31T00:52:31;23.40;;;14.87;;
14139;SDS011;7150;53.514;9.988;2022-10-31T00:54:56;25.93;;;15.17;;
14139;SDS011;7150;53.514;9.988;2022-10-31T00:57:22;22.97;;;14.50;;
14139;SDS011;7150;53.514;9.988;2022-10-31T00:59:47;29.37;;;14.13;;
14139;SDS011;7150;53.514;9.988;2022-10-31T01:02:13;22.73;;;14.60;;
14139;SDS011;7150;53.514;9.988;2022-10-31T01:04:38;23.73;;;13.20;;
14139;SDS011;7150;53.514;9.988;2022-10-31T01:07:04;31.13;;;15.40;;
14139;SDS011;7150;53.514;9.988;2022-10-31T01:09:29;27.93;;;14.70;;
14139;SDS011;7150;53.514;9.988;2022-10-31T01:11:55;28.10;;;14.30;;
14139;SDS011;7150;53.514;9.988;2022-10-31T01:14:20;22.27;;;14.03;;
14139;SDS011;7150;53.514;9.988;2022-10-31T01:16:46;24.57;;;13.87;;
14139;SDS011;7150;53.514;9.988;2022-10-31T01:19:11;27.53;;;15.13;;
14139;SDS011;7150;53.514;9.988;2022-10-31T01:21:37;22.57;;;12.97;;
14139;SDS011;7150;53.514;9.988;2022-10-31T01:24:02;21.63;;;12.63;;
14139;SDS011;7150;53.514;9.988;2022-10-31T01:26:29;25.73;;;15.00;;
14139;SDS011;7150;53.514;9.988;2022-10-31T01:28:57;28.80;;;16.27;;
14139;SDS011;7150;53.514;9.988;2022-10-31T01:31:28;32.93;;;16.17;;
14139;SDS011;7150;53.514;9.988;2022-10-31T01:33:56;28.80;;;15.93;;
14139;SDS011;7150;53.514;9.988;2022-10-31T01:36:26;32.53;;;17.47;;
14139;SDS011;7150;53.514;9.988;2022-10-31T01:38:52;30.30;;;16.73;;
14139;SDS011;7150;53.514;9.988;2022-10-31T01:41:21;36.90;;;17.30;;
14139;SDS011;7150;53.514;9.988;2022-10-31T01:43:53;33.13;;;17.90;;
14139;SDS011;7150;53.514;9.988;2022-10-31T01:46:25;36.97;;;17.77;;
14139;SDS011;7150;53.514;9.988;2022-10-31T01:49:00;32.37;;;18.27;;
14139;SDS011;7150;53.514;9.988;2022-10-31T01:51:30;29.57;;;17.70;;
14139;SDS011;7150;53.514;9.988;2022-10-31T01:54:00;31.70;;;17.97;;
14139;SDS011;7150;53.514;9.988;2022-10-31T01:56:29;31.03;;;18.40;;
14139;SDS011;7150;53.514;9.988;2022-10-31T01:58:56;36.97;;;18.90;;
14139;SDS011;7150;53.514;9.988;2022-10-31T02:01:24;37.53;;;17.97;;
14139;SDS011;7150;53.514;9.988;2022-10-31T02:03:50;32.47;;;17.83;;
14139;SDS011;7150;53.514;9.988;2022-10-31T02:06:21;35.17;;;18.47;;
14139;SDS011;7150;53.514;9.988;2022-10-31T02:08:56;28.70;;;18.10;;
14139;SDS011;7150;53.514;9.988;2022-10-31T02:11:22;34.13;;;17.97;;
14139;SDS011;7150;53.514;9.988;2022-10-31T02:13:48;33.33;;;18.47;;
14139;SDS011;7150;53.514;9.988;2022-10-31T02:16:14;33.80;;;18.60;;
14139;SDS011;7150;53.514;9.988;2022-10-31T02:18:39;38.93;;;18.30;;
14139;SDS011;7150;53.514;9.988;2022-10-31T02:21:49;29.47;;;16.87;;
14139;SDS011;7150;53.514;9.988;2022-10-31T02:24:15;31.30;;;16.97;;
14139;SDS011;7150;53.514;9.988;2022-10-31T02:27:09;28.73;;;18.20;;
14139;SDS011;7150;53.514;9.988;2022-10-31T02:32:33;35.90;;;19.40;;
14139;SDS011;7150;53.514;9.988;2022-10-31T02:35:36;36.00;;;19.27;;
14139;SDS011;7150;53.514;9.988;2022-10-31T02:43:50;41.67;;;19.93;;
14139;SDS011;7150;53.514;9.988;2022-10-31T02:49:07;41.10;;;18.90;;
14139;SDS011;7150;53.514;9.988;2022-10-31T02:52:02;32.30;;;17.53;;
14139;SDS011;7150;53.514;9.988;2022-10-31T02:54:37;35.80;;;18.57;;
14139;SDS011;7150;53.514;9.988;2022-10-31T02:57:04;40.33;;;20.30;;
14139;SDS011;7150;53.514;9.988;2022-10-31T02:59:32;31.10;;;18.10;;
14139;SDS011;7150;53.514;9.988;2022-10-31T03:07:47;33.40;;;17.20;;
14139;SDS011;7150;53.514;9.988;2022-10-31T03:16:06;32.23;;;16.67;;
14139;SDS011;7150;53.514;9.988;2022-10-31T03:18:37;45.07;;;19.23;;
14139;SDS011;7150;53.514;9.988;2022-10-31T03:21:15;29.97;;;16.93;;
14139;SDS011;7150;53.514;9.988;2022-10-31T03:23:46;32.77;;;16.33;;
14139;SDS011;7150;53.514;9.988;2022-10-31T03:26:15;31.90;;;16.30;;
14139;SDS011;7150;53.514;9.988;2022-10-31T03:28:43;35.63;;;19.20;;
14139;SDS011;7150;53.514;9.988;2022-10-31T03:31:15;29.77;;;15.97;;
14139;SDS011;7150;53.514;9.988;2022-10-31T03:33:43;30.50;;;17.10;;
14139;SDS011;7150;53.514;9.988;2022-10-31T03:36:11;37.47;;;16.97;;
14139;SDS011;7150;53.514;9.988;2022-10-31T03:38:39;28.57;;;16.50;;
14139;SDS011;7150;53.514;9.988;2022-10-31T03:41:09;36.83;;;17.60;;
14139;SDS011;7150;53.514;9.988;2022-10-31T03:43:40;32.10;;;18.30;;
14139;SDS011;7150;53.514;9.988;2022-10-31T03:46:10;36.53;;;18.23;;
14139;SDS011;7150;53.514;9.988;2022-10-31T03:48:36;35.17;;;18.00;;
14139;SDS011;7150;53.514;9.988;2022-10-31T03:53:55;34.77;;;20.20;;
14139;SDS011;7150;53.514;9.988;2022-10-31T03:59:05;32.37;;;19.27;;
14139;SDS011;7150;53.514;9.988;2022-10-31T04:01:42;44.00;;;20.70;;
14139;SDS011;7150;53.514;9.988;2022-10-31T04:04:12;40.10;;;19.03;;
14139;SDS011;7150;53.514;9.988;2022-10-31T04:06:39;40.27;;;19.60;;
14139;SDS011;7150;53.514;9.988;2022-10-31T04:09:06;35.30;;;18.80;;
14139;SDS011;7150;53.514;9.988;2022-10-31T04:11:35;38.13;;;20.07;;
14139;SDS011;7150;53.514;9.988;2022-10-31T04:14:03;40.80;;;18.97;;
14139;SDS011;7150;53.514;9.988;2022-10-31T04:16:30;34.13;;;20.23;;
14139;SDS011;7150;53.514;9.988;2022-10-31T04:18:56;39.13;;;20.90;;
14139;SDS011;7150;53.514;9.988;2022-10-31T04:21:28;44.63;;;20.87;;
14139;SDS011;7150;53.514;9.988;2022-10-31T04:23:54;40.10;;;22.33;;
14139;SDS011;7150;53.514;9.988;2022-10-31T04:26:20;35.87;;;18.30;;
14139;SDS011;7150;53.514;9.988;2022-10-31T04:28:46;41.10;;;20.90;;
14139;SDS011;7150;53.514;9.988;2022-10-31T04:31:12;43.47;;;22.50;;
14139;SDS011;7150;53.514;9.988;2022-10-31T04:33:37;39.47;;;21.63;;
14139;SDS011;7150;53.514;9.988;2022-10-31T04:36:03;35.17;;;20.43;;
14139;SDS011;7150;53.514;9.988;2022-10-31T04:38:32;45.87;;;21.20;;
14139;SDS011;7150;53.514;9.988;2022-10-31T04:40:57;42.17;;;22.53;;
14139;SDS011;7150;53.514;9.988;2022-10-31T04:43:23;39.77;;;22.20;;
14139;SDS011;7150;53.514;9.988;2022-10-31T04:45:48;40.57;;;22.00;;
14139;SDS011;7150;53.514;9.988;2022-10-31T04:48:14;41.47;;;21.50;;
14139;SDS011;7150;53.514;9.988;2022-10-31T04:50:40;39.63;;;21.80;;
14139;SDS011;7150;53.514;9.988;2022-10-31T04:53:05;40.33;;;21.93;;
14139;SDS011;7150;53.514;9.988;2022-10-31T04:55:31;40.63;;;21.33;;
14139;SDS011;7150;53.514;9.988;2022-10-31T04:57:56;37.60;;;21.23;;
14139;SDS011;7150;53.514;9.988;2022-10-31T05:00:22;40.37;;;21.23;;
14139;SDS011;7150;53.514;9.988;2022-10-31T05:02:48;40.17;;;22.57;;
14139;SDS011;7150;53.514;9.988;2022-10-31T05:05:19;42.77;;;21.83;;
14139;SDS011;7150;53.514;9.988;2022-10-31T05:07:47;39.07;;;21.40;;
14139;SDS011;7150;53.514;9.988;2022-10-31T05:10:14;39.70;;;19.70;;
14139;SDS011;7150;53.514;9.988;2022-10-31T05:13:02;43.10;;;20.27;;
14139;SDS011;7150;53.514;9.988;2022-10-31T05:15:29;37.00;;;19.63;;
14139;SDS011;7150;53.514;9.988;2022-10-31T05:17:55;39.80;;;19.23;;
14139;SDS011;7150;53.514;9.988;2022-10-31T05:20:22;37.77;;;20.13;;
14139;SDS011;7150;53.514;9.988;2022-10-31T05:22:50;39.53;;;20.50;;
14139;SDS011;7150;53.514;9.988;2022-10-31T05:25:18;39.13;;;20.50;;
14139;SDS011;7150;53.514;9.988;2022-10-31T05:27:45;39.67;;;22.03;;
14139;SDS011;7150;53.514;9.988;2022-10-31T05:30:13;41.83;;;22.80;;
14139;SDS011;7150;53.514;9.988;2022-10-31T05:32:44;49.50;;;22.60;;
14139;SDS011;7150;53.514;9.988;2022-10-31T05:35:13;39.53;;;21.77;;
14139;SDS011;7150;53.514;9.988;2022-10-31T05:37:44;42.23;;;20.47;;
14139;SDS011;7150;53.514;9.988;2022-10-31T05:40:10;47.07;;;21.13;;
14139;SDS011;7150;53.514;9.988;2022-10-31T05:42:38;42.67;;;21.87;;
14139;SDS011;7150;53.514;9.988;2022-10-31T05:45:04;46.37;;;22.13;;
14139;SDS011;7150;53.514;9.988;2022-10-31T05:47:31;58.33;;;24.33;;
14139;SDS011;7150;53.514;9.988;2022-10-31T05:49:57;43.50;;;22.20;;
14139;SDS011;7150;53.514;9.988;2022-10-31T05:52:22;41.33;;;20.17;;
14139;SDS011;7150;53.514;9.988;2022-10-31T05:54:48;52.03;;;24.73;;
14139;SDS011;7150;53.514;9.988;2022-10-31T05:57:13;49.77;;;21.77;;
14139;SDS011;7150;53.514;9.988;2022-10-31T05:59:39;54.27;;;24.23;;
14139;SDS011;7150;53.514;9.988;2022-10-31T06:02:04;49.87;;;23.60;;
14139;SDS011;7150;53.514;9.988;2022-10-31T06:04:30;49.10;;;23.07;;
14139;SDS011;7150;53.514;9.988;2022-10-31T06:06:56;45.73;;;22.87;;
14139;SDS011;7150;53.514;9.988;2022-10-31T06:09:22;50.43;;;23.37;;
14139;SDS011;7150;53.514;9.988;2022-10-31T06:11:48;38.37;;;19.73;;
14139;SDS011;7150;53.514;9.988;2022-10-31T06:14:13;43.67;;;22.50;;
14139;SDS011;7150;53.514;9.988;2022-10-31T06:16:38;44.57;;;20.37;;
14139;SDS011;7150;53.514;9.988;2022-10-31T06:19:04;36.97;;;19.53;;
14139;SDS011;7150;53.514;9.988;2022-10-31T06:21:30;39.57;;;20.17;;
14139;SDS011;7150;53.514;9.988;2022-10-31T06:23:55;45.90;;;21.10;;
14139;SDS011;7150;53.514;9.988;2022-10-31T06:26:21;46.43;;;21.97;;
14139;SDS011;7150;53.514;9.988;2022-10-31T06:28:46;39.33;;;19.70;;
14139;SDS011;7150;53.514;9.988;2022-10-31T06:31:12;46.73;;;21.93;;
14139;SDS011;7150;53.514;9.988;2022-10-31T06:33:37;46.77;;;22.40;;
14139;SDS011;7150;53.514;9.988;2022-10-31T06:36:03;42.73;;;22.53;;
14139;SDS011;7150;53.514;9.988;2022-10-31T06:38:28;34.53;;;18.63;;
14139;SDS011;7150;53.514;9.988;2022-10-31T06:40:54;44.13;;;22.20;;
14139;SDS011;7150;53.514;9.988;2022-10-31T06:43:20;42.67;;;21.13;;
14139;SDS011;7150;53.514;9.988;2022-10-31T06:45:46;38.50;;;19.63;;
14139;SDS011;7150;53.514;9.988;2022-10-31T06:48:12;38.70;;;21.03;;
14139;SDS011;7150;53.514;9.988;2022-10-31T06:50:37;40.27;;;19.93;;
14139;SDS011;7150;53.514;9.988;2022-10-31T06:53:03;44.20;;;21.40;;
14139;SDS011;7150;53.514;9.988;2022-10-31T06:55:29;42.37;;;20.50;;
14139;SDS011;7150;53.514;9.988;2022-10-31T06:57:55;42.10;;;20.93;;
14139;SDS011;7150;53.514;9.988;2022-10-31T07:00:22;41.80;;;21.17;;
14139;SDS011;7150;53.514;9.988;2022-10-31T07:05:24;49.10;;;21.60;;
14139;SDS011;7150;53.514;9.988;2022-10-31T07:07:57;37.50;;;20.00;;
14139;SDS011;7150;53.514;9.988;2022-10-31T07:10:27;45.20;;;20.40;;
14139;SDS011;7150;53.514;9.988;2022-10-31T07:12:54;44.87;;;18.33;;
14139;SDS011;7150;53.514;9.988;2022-10-31T07:15:28;42.87;;;18.00;;
14139;SDS011;7150;53.514;9.988;2022-10-31T07:18:01;36.73;;;19.37;;
14139;SDS011;7150;53.514;9.988;2022-10-31T07:20:28;48.53;;;17.70;;
14139;SDS011;7150;53.514;9.988;2022-10-31T07:22:54;35.37;;;17.83;;
14139;SDS011;7150;53.514;9.988;2022-10-31T07:25:19;44.43;;;17.03;;
14139;SDS011;7150;53.514;9.988;2022-10-31T07:27:45;35.33;;;17.80;;
14139;SDS011;7150;53.514;9.988;2022-10-31T07:30:11;40.77;;;17.97;;
14139;SDS011;7150;53.514;9.988;2022-10-31T07:32:42;35.73;;;17.20;;
14139;SDS011;7150;53.514;9.988;2022-10-31T07:35:09;40.10;;;18.90;;
14139;SDS011;7150;53.514;9.988;2022-10-31T07:37:36;39.17;;;17.87;;
14139;SDS011;7150;53.514;9.988;2022-10-31T07:40:02;48.03;;;18.43;;
14139;SDS011;7150;53.514;9.988;2022-10-31T07:42:29;47.10;;;17.27;;
14139;SDS011;7150;53.514;9.988;2022-10-31T07:44:59;45.40;;;18.97;;
14139;SDS011;7150;53.514;9.988;2022-10-31T07:47:24;41.93;;;18.67;;
14139;SDS011;7150;53.514;9.988;2022-10-31T07:49:50;44.13;;;18.33;;
14139;SDS011;7150;53.514;9.988;2022-10-31T07:52:15;51.07;;;18.73;;
14139;SDS011;7150;53.514;9.988;2022-10-31T07:54:41;39.40;;;19.53;;
14139;SDS011;7150;53.514;9.988;2022-10-31T07:57:06;38.53;;;17.63;;
14139;SDS011;7150;53.514;9.988;2022-10-31T07:59:32;37.47;;;17.73;;
14139;SDS011;7150;53.514;9.988;2022-10-31T08:01:57;44.53;;;19.40;;
14139;SDS011;7150;53.514;9.988;2022-10-31T08:04:22;50.90;;;19.70;;
14139;SDS011;7150;53.514;9.988;2022-10-31T08:06:48;43.73;;;18.87;;
14139;SDS011;7150;53.514;9.988;2022-10-31T08:09:13;49.90;;;22.10;;
14139;SDS011;7150;53.514;9.988;2022-10-31T08:11:39;40.13;;;18.63;;
14139;SDS011;7150;53.514;9.988;2022-10-31T08:14:04;42.67;;;18.07;;
14139;SDS011;7150;53.514;9.988;2022-10-31T08:16:30;45.93;;;19.60;;
14139;SDS011;7150;53.514;9.988;2022-10-31T08:18:55;48.00;;;21.10;;
14139;SDS011;7150;53.514;9.988;2022-10-31T08:21:21;51.63;;;20.50;;
14139;SDS011;7150;53.514;9.988;2022-10-31T08:23:47;47.23;;;18.37;;
14139;SDS011;7150;53.514;9.988;2022-10-31T08:26:12;44.10;;;19.00;;
14139;SDS011;7150;53.514;9.988;2022-10-31T08:28:38;37.93;;;17.20;;
14139;SDS011;7150;53.514;9.988;2022-10-31T08:31:03;40.80;;;17.77;;
14139;SDS011;7150;53.514;9.988;2022-10-31T08:33:29;47.10;;;18.97;;
14139;SDS011;7150;53.514;9.988;2022-10-31T08:35:57;43.00;;;18.87;;
14139;SDS011;7150;53.514;9.988;2022-10-31T08:38:23;49.60;;;20.37;;
14139;SDS011;7150;53.514;9.988;2022-10-31T08:40:48;45.77;;;20.07;;
14139;SDS011;7150;53.514;9.988;2022-10-31T08:43:15;52.63;;;20.30;;
14139;SDS011;7150;53.514;9.988;2022-10-31T08:45:42;48.73;;;20.57;;
14139;SDS011;7150;53.514;9.988;2022-10-31T08:48:12;49.53;;;21.47;;
14139;SDS011;7150;53.514;9.988;2022-10-31T08:50:39;45.60;;;19.53;;
14139;SDS011;7150;53.514;9.988;2022-10-31T08:53:06;43.77;;;19.10;;
14139;SDS011;7150;53.514;9.988;2022-10-31T08:55:34;44.93;;;19.80;;
14139;SDS011;7150;53.514;9.988;2022-10-31T08:58:01;50.00;;;20.47;;
14139;SDS011;7150;53.514;9.988;2022-10-31T09:00:27;39.43;;;20.23;;
14139;SDS011;7150;53.514;9.988;2022-10-31T09:02:59;47.33;;;20.57;;
14139;SDS011;7150;53.514;9.988;2022-10-31T09:05:30;46.53;;;20.47;;
14139;SDS011;7150;53.514;9.988;2022-10-31T09:07:56;48.53;;;21.37;;
14139;SDS011;7150;53.514;9.988;2022-10-31T09:10:26;44.30;;;19.60;;
14139;SDS011;7150;53.514;9.988;2022-10-31T09:12:56;49.23;;;20.67;;
14139;SDS011;7150;53.514;9.988;2022-10-31T09:15:26;49.27;;;20.03;;
14139;SDS011;7150;53.514;9.988;2022-10-31T09:17:53;40.47;;;19.60;;
14139;SDS011;7150;53.514;9.988;2022-10-31T09:20:18;46.53;;;20.20;;
14139;SDS011;7150;53.514;9.988;2022-10-31T09:22:44;37.63;;;17.53;;
14139;SDS011;7150;53.514;9.988;2022-10-31T09:25:10;34.17;;;15.63;;
14139;SDS011;7150;53.514;9.988;2022-10-31T09:27:36;52.87;;;20.50;;
14139;SDS011;7150;53.514;9.988;2022-10-31T09:30:02;39.47;;;18.47;;
14139;SDS011;7150;53.514;9.988;2022-10-31T09:32:28;47.87;;;19.37;;
14139;SDS011;7150;53.514;9.988;2022-10-31T09:34:53;41.70;;;19.63;;
14139;SDS011;7150;53.514;9.988;2022-10-31T09:37:19;46.07;;;19.47;;
14139;SDS011;7150;53.514;9.988;2022-10-31T09:39:44;48.23;;;19.53;;
14139;SDS011;7150;53.514;9.988;2022-10-31T09:47:25;44.53;;;19.93;;
14139;SDS011;7150;53.514;9.988;2022-10-31T09:50:17;51.13;;;19.73;;
14139;SDS011;7150;53.514;9.988;2022-10-31T09:53:01;39.23;;;18.27;;
14139;SDS011;7150;53.514;9.988;2022-10-31T09:55:37;39.33;;;18.37;;
14139;SDS011;7150;53.514;9.988;2022-10-31T09:58:05;36.97;;;17.17;;
14139;SDS011;7150;53.514;9.988;2022-10-31T10:00:40;42.17;;;18.47;;
14139;SDS011;7150;53.514;9.988;2022-10-31T10:03:19;40.07;;;18.53;;
14139;SDS011;7150;53.514;9.988;2022-10-31T10:06:11;37.77;;;17.27;;
14139;SDS011;7150;53.514;9.988;2022-10-31T10:08:43;38.80;;;17.00;;
14139;SDS011;7150;53.514;9.988;2022-10-31T10:13:55;42.10;;;18.73;;
14139;SDS011;7150;53.514;9.988;2022-10-31T10:25:01;39.37;;;18.20;;
14139;SDS011;7150;53.514;9.988;2022-10-31T10:27:46;37.97;;;17.67;;
14139;SDS011;7150;53.514;9.988;2022-10-31T10:33:17;36.10;;;17.60;;
14139;SDS011;7150;53.514;9.988;2022-10-31T10:41:08;32.00;;;14.93;;
14139;SDS011;7150;53.514;9.988;2022-10-31T10:43:39;36.10;;;17.73;;
14139;SDS011;7150;53.514;9.988;2022-10-31T10:48:56;33.60;;;16.77;;
14139;SDS011;7150;53.514;9.988;2022-10-31T10:51:56;35.77;;;17.23;;
14139;SDS011;7150;53.514;9.988;2022-10-31T10:57:27;52.23;;;21.37;;
14139;SDS011;7150;53.514;9.988;2022-10-31T11:02:48;42.30;;;20.57;;
14139;SDS011;7150;53.514;9.988;2022-10-31T11:05:23;37.03;;;18.27;;
14139;SDS011;7150;53.514;9.988;2022-10-31T11:08:26;37.77;;;17.93;;
14139;SDS011;7150;53.514;9.988;2022-10-31T11:10:58;45.83;;;21.60;;
14139;SDS011;7150;53.514;9.988;2022-10-31T11:13:28;40.63;;;18.90;;
14139;SDS011;7150;53.514;9.988;2022-10-31T11:18:25;34.17;;;18.80;;
14139;SDS011;7150;53.514;9.988;2022-10-31T11:20:53;29.80;;;17.33;;
14139;SDS011;7150;53.514;9.988;2022-10-31T11:23:21;41.10;;;19.47;;
14139;SDS011;7150;53.514;9.988;2022-10-31T11:26:05;40.70;;;19.83;;
14139;SDS011;7150;53.514;9.988;2022-10-31T11:28:32;33.97;;;17.13;;
14139;SDS011;7150;53.514;9.988;2022-10-31T11:31:00;51.30;;;19.33;;
14139;SDS011;7150;53.514;9.988;2022-10-31T11:33:35;37.63;;;19.10;;
14139;SDS011;7150;53.514;9.988;2022-10-31T11:36:13;42.83;;;19.67;;
14139;SDS011;7150;53.514;9.988;2022-10-31T11:38:47;38.00;;;19.00;;
14139;SDS011;7150;53.514;9.988;2022-10-31T11:41:23;35.77;;;18.97;;
14139;SDS011;7150;53.514;9.988;2022-10-31T11:43:51;39.70;;;19.10;;
14139;SDS011;7150;53.514;9.988;2022-10-31T11:46:24;35.60;;;18.20;;
14139;SDS011;7150;53.514;9.988;2022-10-31T11:49:02;30.53;;;17.60;;
14139;SDS011;7150;53.514;9.988;2022-10-31T11:51:31;31.17;;;16.67;;
14139;SDS011;7150;53.514;9.988;2022-10-31T11:53:58;41.10;;;19.70;;
14139;SDS011;7150;53.514;9.988;2022-10-31T11:56:27;29.90;;;17.07;;
14139;SDS011;7150;53.514;9.988;2022-10-31T11:59:02;34.73;;;18.23;;
14139;SDS011;7150;53.514;9.988;2022-10-31T12:01:30;28.50;;;16.80;;
14139;SDS011;7150;53.514;9.988;2022-10-31T12:06:39;24.63;;;15.27;;
14139;SDS011;7150;53.514;9.988;2022-10-31T12:09:13;27.27;;;16.00;;
14139;SDS011;7150;53.514;9.988;2022-10-31T12:11:49;28.50;;;16.33;;
14139;SDS011;7150;53.514;9.988;2022-10-31T12:14:32;28.90;;;16.07;;
14139;SDS011;7150;53.514;9.988;2022-10-31T12:17:19;29.73;;;16.07;;
14139;SDS011;7150;53.514;9.988;2022-10-31T12:20:16;39.30;;;18.50;;
14139;SDS011;7150;53.514;9.988;2022-10-31T12:23:28;26.40;;;16.10;;
14139;SDS011;7150;53.514;9.988;2022-10-31T12:25:50;29.60;;;15.53;;
14139;SDS011;7150;53.514;9.988;2022-10-31T12:28:35;29.10;;;16.27;;
14139;SDS011;7150;53.514;9.988;2022-10-31T12:34:01;28.23;;;14.43;;
14139;SDS011;7150;53.514;9.988;2022-10-31T12:36:45;23.33;;;13.70;;
14139;SDS011;7150;53.514;9.988;2022-10-31T12:45:00;18.70;;;11.27;;
14139;SDS011;7150;53.514;9.988;2022-10-31T12:47:39;16.40;;;10.53;;
14139;SDS011;7150;53.514;9.988;2022-10-31T12:50:14;19.07;;;10.50;;
14139;SDS011;7150;53.514;9.988;2022-10-31T12:55:40;11.80;;;8.00;;
14139;SDS011;7150;53.514;9.988;2022-10-31T13:00:41;17.10;;;10.20;;
14139;SDS011;7150;53.514;9.988;2022-10-31T13:05:57;14.03;;;9.10;;
14139;SDS011;7150;53.514;9.988;2022-10-31T13:08:35;15.73;;;8.03;;
14139;SDS011;7150;53.514;9.988;2022-10-31T13:11:08;15.80;;;9.07;;
14139;SDS011;7150;53.514;9.988;2022-10-31T13:13:55;17.13;;;9.00;;
14139;SDS011;7150;53.514;9.988;2022-10-31T13:16:36;13.33;;;8.00;;
14139;SDS011;7150;53.514;9.988;2022-10-31T13:19:14;17.77;;;10.20;;
14139;SDS011;7150;53.514;9.988;2022-10-31T13:21:57;15.87;;;10.13;;
14139;SDS011;7150;53.514;9.988;2022-10-31T13:24:29;20.60;;;9.97;;
14139;SDS011;7150;53.514;9.988;2022-10-31T13:30:05;12.57;;;8.77;;
14139;SDS011;7150;53.514;9.988;2022-10-31T13:35:18;15.53;;;9.23;;
14139;SDS011;7150;53.514;9.988;2022-10-31T13:40:59;12.27;;;7.77;;
14139;SDS011;7150;53.514;9.988;2022-10-31T13:44:12;11.47;;;7.00;;
14139;SDS011;7150;53.514;9.988;2022-10-31T13:46:39;11.47;;;7.17;;
14139;SDS011;7150;53.514;9.988;2022-10-31T13:54:49;16.70;;;8.27;;
14139;SDS011;7150;53.514;9.988;2022-10-31T13:57:34;11.23;;;7.93;;
14139;SDS011;7150;53.514;9.988;2022-10-31T14:00:21;11.00;;;6.07;;
14139;SDS011;7150;53.514;9.988;2022-10-31T14:02:53;11.73;;;7.97;;
14139;SDS011;7150;53.514;9.988;2022-10-31T14:05:23;17.33;;;7.77;;
14139;SDS011;7150;53.514;9.988;2022-10-31T14:07:52;11.10;;;6.67;;
14139;SDS011;7150;53.514;9.988;2022-10-31T14:12:51;10.83;;;6.73;;
14139;SDS011;7150;53.514;9.988;2022-10-31T14:15:25;13.90;;;8.73;;
14139;SDS011;7150;53.514;9.988;2022-10-31T14:17:57;17.33;;;9.07;;
14139;SDS011;7150;53.514;9.988;2022-10-31T14:22:56;15.30;;;8.93;;
14139;SDS011;7150;53.514;9.988;2022-10-31T14:25:26;21.03;;;9.30;;
14139;SDS011;7150;53.514;9.988;2022-10-31T14:27:54;18.90;;;9.50;;
14139;SDS011;7150;53.514;9.988;2022-10-31T14:30:21;14.90;;;8.40;;
14139;SDS011;7150;53.514;9.988;2022-10-31T14:32:50;16.27;;;9.87;;
14139;SDS011;7150;53.514;9.988;2022-10-31T14:35:18;15.70;;;8.80;;
14139;SDS011;7150;53.514;9.988;2022-10-31T14:37:54;17.03;;;9.47;;
14139;SDS011;7150;53.514;9.988;2022-10-31T14:40:42;17.73;;;9.10;;
14139;SDS011;7150;53.514;9.988;2022-10-31T14:43:28;15.43;;;8.90;;
14139;SDS011;7150;53.514;9.988;2022-10-31T14:51:10;14.67;;;9.37;;
14139;SDS011;7150;53.514;9.988;2022-10-31T14:53:49;14.53;;;8.90;;
14139;SDS011;7150;53.514;9.988;2022-10-31T14:56:19;14.87;;;8.43;;
14139;SDS011;7150;53.514;9.988;2022-10-31T14:58:48;17.67;;;9.70;;
14139;SDS011;7150;53.514;9.988;2022-10-31T15:01:30;20.03;;;10.43;;
14139;SDS011;7150;53.514;9.988;2022-10-31T15:04:00;14.57;;;7.97;;
14139;SDS011;7150;53.514;9.988;2022-10-31T15:06:42;16.70;;;9.57;;
14139;SDS011;7150;53.514;9.988;2022-10-31T15:09:20;32.83;;;8.77;;
14139;SDS011;7150;53.514;9.988;2022-10-31T15:11:50;16.93;;;9.47;;
14139;SDS011;7150;53.514;9.988;2022-10-31T15:14:21;18.60;;;10.17;;
14139;SDS011;7150;53.514;9.988;2022-10-31T15:16:58;18.03;;;9.27;;
14139;SDS011;7150;53.514;9.988;2022-10-31T15:19:28;21.27;;;10.20;;
14139;SDS011;7150;53.514;9.988;2022-10-31T15:21:56;16.83;;;9.73;;
14139;SDS011;7150;53.514;9.988;2022-10-31T15:24:28;18.13;;;10.73;;
14139;SDS011;7150;53.514;9.988;2022-10-31T15:26:58;19.90;;;10.60;;
14139;SDS011;7150;53.514;9.988;2022-10-31T15:29:25;15.93;;;10.10;;
14139;SDS011;7150;53.514;9.988;2022-10-31T15:34:39;18.20;;;9.90;;
14139;SDS011;7150;53.514;9.988;2022-10-31T15:37:12;18.07;;;10.40;;
14139;SDS011;7150;53.514;9.988;2022-10-31T15:39:39;22.73;;;11.10;;
14139;SDS011;7150;53.514;9.988;2022-10-31T15:42:13;21.83;;;13.30;;
14139;SDS011;7150;53.514;9.988;2022-10-31T15:44:43;22.13;;;13.37;;
14139;SDS011;7150;53.514;9.988;2022-10-31T15:47:17;20.87;;;11.80;;
14139;SDS011;7150;53.514;9.988;2022-10-31T15:49:51;20.53;;;10.73;;
14139;SDS011;7150;53.514;9.988;2022-10-31T15:57:42;25.80;;;12.07;;
14139;SDS011;7150;53.514;9.988;2022-10-31T16:03:06;20.37;;;11.30;;
14139;SDS011;7150;53.514;9.988;2022-10-31T16:05:45;20.47;;;11.37;;
14139;SDS011;7150;53.514;9.988;2022-10-31T16:10:56;23.80;;;10.30;;
14139;SDS011;7150;53.514;9.988;2022-10-31T16:13:32;20.30;;;11.00;;
14139;SDS011;7150;53.514;9.988;2022-10-31T16:16:02;24.23;;;10.53;;
14139;SDS011;7150;53.514;9.988;2022-10-31T16:18:36;23.73;;;10.93;;
14139;SDS011;7150;53.514;9.988;2022-10-31T16:21:04;20.00;;;10.07;;
14139;SDS011;7150;53.514;9.988;2022-10-31T16:23:30;21.47;;;9.90;;
14139;SDS011;7150;53.514;9.988;2022-10-31T16:25:55;17.83;;;9.00;;
14139;SDS011;7150;53.514;9.988;2022-10-31T16:28:22;20.33;;;10.43;;
14139;SDS011;7150;53.514;9.988;2022-10-31T16:30:51;17.70;;;10.63;;
14139;SDS011;7150;53.514;9.988;2022-10-31T16:33:23;23.97;;;10.83;;
14139;SDS011;7150;53.514;9.988;2022-10-31T16:38:53;23.60;;;10.47;;
14139;SDS011;7150;53.514;9.988;2022-10-31T16:41:19;20.83;;;11.17;;
14139;SDS011;7150;53.514;9.988;2022-10-31T16:43:45;18.83;;;9.73;;
14139;SDS011;7150;53.514;9.988;2022-10-31T16:46:12;18.30;;;10.00;;
14139;SDS011;7150;53.514;9.988;2022-10-31T16:48:40;20.23;;;10.10;;
14139;SDS011;7150;53.514;9.988;2022-10-31T16:51:06;22.53;;;10.73;;
14139;SDS011;7150;53.514;9.988;2022-10-31T16:53:32;20.30;;;10.27;;
14139;SDS011;7150;53.514;9.988;2022-10-31T16:55:58;19.77;;;9.20;;
14139;SDS011;7150;53.514;9.988;2022-10-31T16:58:27;16.43;;;10.07;;
14139;SDS011;7150;53.514;9.988;2022-10-31T17:00:54;21.53;;;10.10;;